Flight Track Log - Related Links

Times and Time Zones

All times are in EDT time to prevent confusion due to time zone crossing. See the N589H flight status page for this flight to view local times or setup timezone preferences in your user account.

Time Position Orientation Groundspeed Altitude Reporting Facility
EDT Latitude Longitude Course Direction KTS MPH feet Rate Location/Type
Thu 11:30:39 AM 29.6100 -95.6550 169° South 167 192 600  Level Houston Center
Thu 11:31:16 AM 29.5819 -95.6486 169° South 157 181 1,700 1,618 Climbing Houston Center
Thu 11:32:08 AM 29.5442 -95.6403 169° South 167 192 3,000 1,701 Climbing Houston Center
Thu 11:32:23 AM 29.5281 -95.6311 154° Southeast 191 220 3,600 1,548 Climbing Houston Center
Thu 11:33:10 AM 29.5058 -95.5958 126° Southeast 203 234 4,600 1,475 Climbing Houston Center
Thu 11:33:24 AM 29.4917 -95.5778 132° Southeast 210 242 5,100 1,452 Climbing Houston Center
Thu 11:34:12 AM 29.4739 -95.5361 116° Southeast 226 260 6,100 1,452 Climbing Houston Center
Thu 11:34:26 AM 29.4686 -95.5083 102° East 249 287 6,600 1,355 Climbing Houston Center
Thu 11:35:14 AM 29.4603 -95.4572 101° East 254 292 7,500 1,452 Climbing Houston Center
Thu 11:35:28 AM 29.4544 -95.4236 101° East 260 299 8,100 581 Climbing Houston Center
Thu 11:36:16 AM 29.4267 -95.3614 117° Southeast 283 326 8,100  Level Houston Center
Thu 11:36:29 AM 29.4158 -95.3444 126° Southeast 300 345 8,100  Level Houston Center
Thu 11:37:19 AM 29.3839 -95.2808 120° Southeast 295 339 8,100 295 Level Houston Center
Thu 11:37:30 AM 29.3722 -95.2586 121° Southeast 302 348 8,400 1,258 Climbing Houston Center
Thu 11:38:21 AM 29.3433 -95.2006 120° Southeast 297 342 9,400 1,433 Climbing Houston Center
Thu 11:38:37 AM 29.3325 -95.1697 112° Southeast 283 326 10,000 1,452 Climbing Houston Center
Thu 11:39:23 AM 29.3458 -95.1175 74° East 285 328 10,900 1,500 Climbing Houston Center
Thu 11:40:25 AM 29.3789 -95.0206 69° East 278 320 12,700 1,645 Climbing Houston Center
Thu 11:41:27 AM 29.4064 -94.9383 69° East 279 321 14,300 1,790 Climbing Houston Center
Thu 11:42:29 AM 29.4347 -94.8603 67° East 270 311 16,400 1,742 Climbing Houston Center
Thu 11:43:31 AM 29.4600 -94.7828 69° East 264 304 17,900 1,440 Climbing Houston Center
Thu 11:44:34 AM 29.4847 -94.7000 71° East 272 313 19,400 1,584 Climbing Houston Center
Thu 11:45:36 AM 29.5164 -94.5947 71° East 289 333 21,200 1,597 Climbing Houston Center
Thu 11:46:38 AM 29.5444 -94.5103 69° East 288 331 22,700 1,306 Climbing Houston Center
Thu 11:47:40 AM 29.5719 -94.4250 70° East 288 331 23,900 1,065 Climbing Houston Center
Thu 11:48:42 AM 29.5978 -94.3344 72° East 297 342 24,900 968 Climbing Houston Center
Thu 11:49:44 AM 29.6236 -94.2406 72° East 307 353 25,900 1,008 Climbing Houston Center
Thu 11:50:47 AM 29.6542 -94.1364 71° East 308 354 27,000 960 Climbing Houston Center
Thu 11:51:49 AM 29.6772 -94.0425 74° East 310 357 27,900 677 Climbing Houston Center
Thu 11:52:51 AM 29.6853 -93.9394 85° East 319 367 28,400 484 Climbing Houston Center
Thu 11:53:53 AM 29.6881 -93.8097 89° East 338 389 28,900 242 Climbing Houston Center
Thu 11:54:55 AM 29.6858 -93.6972 91° East 350 403 28,900  Level Houston Center
Thu 11:55:59 AM 29.6839 -93.5786 91° East 370 426 28,900  Level Houston Center
Thu 11:57:00 AM 29.6822 -93.4600 91° East 370 426 28,900  Level Houston Center
Thu 11:58:02 AM 29.6808 -93.3436 91° East 370 426 28,900  Level Houston Center
Thu 11:59:04 AM 29.6789 -93.2031 91° East 369 425 28,900  Level Houston Center
Thu 12:00:06 PM 29.6767 -93.0867 91° East 369 425 28,900  Level Houston Center
Thu 12:01:08 PM 29.6739 -92.9722 92° East 367 422 28,900  Level Houston Center
Thu 12:02:10 PM 29.6728 -92.8569 91° East 366 421 28,900  Level Houston Center
Thu 12:03:13 PM 29.6697 -92.7425 92° East 364 419 28,900  Level Houston Center
Thu 12:04:15 PM 29.6681 -92.6014 91° East 366 421 28,900  Level Houston Center
Thu 12:05:17 PM 29.6656 -92.4825 91° East 368 423 28,900  Level Houston Center
Thu 12:06:19 PM 29.6633 -92.3631 91° East 371 427 28,900  Level Houston Center
Thu 12:07:21 PM 29.6389 -92.2475 104° East 373 429 28,900  Level Houston Center
Thu 12:08:23 PM 29.6139 -92.1297 104° East 374 430 28,900  Level Houston Center
Thu 12:09:26 PM 29.5842 -91.9894 104° East 375 432 28,900  Level Houston Center
Thu 12:10:30 PM 29.5608 -91.8731 103° East 375 432 28,900  Level Houston Center
Thu 12:11:30 PM 29.5356 -91.7569 104° East 375 432 28,900  Level Houston Center
Thu 12:12:32 PM 29.5131 -91.6494 103° East 376 433 28,900  Level Houston Center
Thu 12:13:34 PM 29.4822 -91.5103 104° East 376 433 28,900  Level Houston Center
Thu 12:14:36 PM 29.4592 -91.3939 103° East 376 433 28,900 48 Level Houston Center
Thu 12:15:39 PM 29.4339 -91.2783 104° East 376 433 29,000  Climbing Houston Center
Thu 12:16:41 PM 29.4092 -91.1636 104° East 375 432 28,900 -48 Descending Houston Center
Thu 12:17:43 PM 29.3833 -91.0486 104° East 375 432 28,900  Level Houston Center
Thu 12:18:45 PM 29.3544 -90.9117 104° East 373 429 28,900  Level Houston Center
Thu 12:19:47 PM 29.3294 -90.7981 104° East 372 428 28,900  Level Houston Center
Thu 12:20:49 PM 29.3042 -90.6833 104° East 372 428 28,900  Level Houston Center
Thu 12:21:51 PM 29.2792 -90.5700 104° East 371 427 28,900  Level Houston Center
Thu 12:22:54 PM 29.2539 -90.4561 104° East 371 427 28,900  Level Houston Center
Thu 12:23:56 PM 29.2242 -90.3208 104° East 370 426 28,900  Level Houston Center
Thu 12:24:58 PM 29.1986 -90.2083 105° East 369 425 28,900 48 Level Houston Center
Thu 12:26:00 PM 29.1725 -90.0944 105° East 369 425 29,000  Climbing Houston Center
Thu 12:27:02 PM 29.1511 -89.9817 102° East 369 425 28,900 -48 Descending Houston Center
Thu 12:28:04 PM 29.1283 -89.8697 103° East 365 420 28,900  Level Houston Center
Thu 12:29:07 PM 29.1000 -89.7344 103° East 365 420 28,900  Level Houston Center
Thu 12:30:09 PM 29.0769 -89.6208 103° East 366 421 28,900  Level Houston Center
Thu 12:31:11 PM 29.0531 -89.5064 103° East 372 428 28,900  Level Houston Center
Thu 12:32:13 PM 29.0294 -89.3939 103° East 368 423 28,900  Level Houston Center
Thu 12:33:15 PM 29.0061 -89.2819 103° East 367 422 28,900  Level Houston Center
Thu 12:34:17 PM 28.9828 -89.1700 103° East 367 422 28,900 48 Level Houston Center
Thu 12:35:20 PM 28.9542 -89.0356 104° East 366 421 29,000  Climbing Houston Center
Thu 12:36:22 PM 28.9303 -88.9228 104° East 366 421 28,900  Descending Houston Center
Thu 12:37:24 PM 28.9067 -88.8094 103° East 366 421 29,000  Climbing Houston Center
Thu 12:38:26 PM 28.8833 -88.6978 103° East 366 421 28,900 -48 Descending Houston Center
Thu 12:39:28 PM 28.8672 -88.5811 99° East 369 425 28,900  Level Houston Center
Thu 12:40:30 PM 28.8483 -88.4447 99° East 369 425 28,900  Level Houston Center
Thu 12:41:33 PM 28.8314 -88.3292 99° East 369 425 28,900  Level Houston Center
Thu 12:42:35 PM 28.8064 -88.2150 104° East 370 426 28,900  Level Houston Center
Thu 12:43:37 PM 28.7736 -88.1044 109° East 374 430 28,900  Level Houston Center
Thu 12:44:39 PM 28.7217 -87.9964 119° Southeast 373 429 28,900  Level Houston Center
Thu 12:45:41 PM 28.6719 -87.8936 119° Southeast 373 429 28,900  Level Houston Center
Thu 12:46:44 PM 28.6314 -87.7858 113° Southeast 373 429 28,900  Level Houston Center
Thu 12:47:46 PM 28.5933 -87.6533 108° East 369 425 28,900  Level Houston Center
Thu 12:48:48 PM 28.5606 -87.5422 109° East 369 425 28,900  Level Houston Center
Thu 12:49:50 PM 28.5278 -87.4314 109° East 370 426 28,900  Level Houston Center
Thu 12:50:52 PM 28.4969 -87.3208 108° East 369 425 28,900  Level Houston Center
Thu 12:51:54 PM 28.4650 -87.2108 108° East 369 425 28,900  Level Houston Center
Thu 12:52:40 PM 28.4414 -87.1203 106° East 371 427 28,900  Level Jacksonville Center
Thu 12:53:40 PM 28.4056 -87.0056 110° East 371 427 28,900  Level Jacksonville Center
Thu 12:54:40 PM 28.3756 -86.8983 108° East 371 427 28,900  Level Jacksonville Center
Thu 12:55:40 PM 28.3414 -86.7883 109° East 363 418 28,900 50 Level Jacksonville Center
Thu 12:56:40 PM 28.3133 -86.6811 107° East 369 425 29,000  Climbing Jacksonville Center
Thu 12:57:40 PM 28.2769 -86.5692 110° East 377 434 28,900 -50 Descending Jacksonville Center
Thu 12:58:40 PM 28.2444 -86.4572 108° East 353 406 28,900 50 Level Jacksonville Center
Thu 12:59:40 PM 28.2142 -86.3503 108° East 353 406 29,000  Climbing Jacksonville Center
Thu 01:00:40 PM 28.1814 -86.2431 109° East 353 406 28,900 -50 Descending Jacksonville Center
Thu 01:01:40 PM 28.1489 -86.1292 108° East 359 413 28,900 50 Level Jacksonville Center
Thu 01:02:40 PM 28.1142 -86.0175 109° East 367 422 29,000  Climbing Jacksonville Center
Thu 01:03:40 PM 28.0833 -85.9106 108° East 360 414 28,900 -18 Descending Jacksonville Center
Thu 01:08:21 PM 27.9303 -85.4097 95° East 365 420 28,900 17 Level Miami Center
Thu 01:09:23 PM 27.8914 -85.2800 109° East 365 420 29,000 48 Climbing Miami Center
Thu 01:10:25 PM 27.8833 -85.1642 94° East 371 427 29,000  Level Miami Center
Thu 01:11:27 PM 27.8853 -85.0494 89° East 370 426 29,000  Level Miami Center
Thu 01:12:00 PM 27.8575 -85.0819 100° East  Level FlightAware Approximate
Thu 01:12:29 PM 27.8914 -84.9394 86° East 367 422 29,000  Level Miami Center
Thu 01:13:00 PM 27.8458 -84.9787 95° East  Level FlightAware Approximate
Thu 01:13:31 PM 27.8881 -84.8250 92° East 365 420 29,000  Level Miami Center
Thu 01:14:33 PM 27.8961 -84.6872 86° East 365 420 28,300 -774 Descending Miami Center
Thu 01:15:35 PM 27.8950 -84.5692 91° East 371 427 27,400 -912 Descending Miami Center
Thu 01:16:38 PM 27.8994 -84.4511 88° East 373 429 26,400 -960 Descending Miami Center
Thu 01:17:40 PM 27.9022 -84.3358 88° East 369 425 25,400 -919 Descending Miami Center
Thu 01:18:42 PM 27.9031 -84.2189 90° East 371 427 24,500 -1,161 Descending Miami Center
Thu 01:19:44 PM 27.9058 -84.1033 88° East 371 427 23,000 -1,839 Descending Miami Center
Thu 01:20:46 PM 27.9058 -83.9697 90° East 357 411 20,700 -2,081 Descending Miami Center
Thu 01:21:48 PM 27.9081 -83.8625 89° East 347 399 18,700 -1,887 Descending Miami Center
Thu 01:22:50 PM 27.9097 -83.7586 89° East 333 383 16,800 -1,839 Descending Miami Center
Thu 01:23:52 PM 27.9106 -83.6575 89° East 326 375 14,900 -1,790 Descending Miami Center
Thu 01:24:54 PM 27.9108 -83.5586 90° East 321 369 13,100 -1,645 Descending Miami Center
Thu 01:25:56 PM 27.9136 -83.4639 88° East 309 356 11,500 -1,694 Descending Miami Center
Thu 01:26:58 PM 27.9144 -83.3497 90° East 307 353 9,600 -1,645 Descending Miami Center
Thu 01:28:00 PM 27.9153 -83.2542 89° East 307 353 8,100 -1,200 Descending Miami Center
Thu 01:29:03 PM 27.9125 -83.1636 92° East 297 342 7,100 -960 Descending Miami Center
Thu 01:30:05 PM 27.9108 -83.0758 91° East 288 331 6,100 -968 Descending Miami Center
Thu 01:31:07 PM 27.9075 -82.9894 92° East 281 323 5,100 -919 Descending Miami Center
Thu 01:32:09 PM 27.8933 -82.9083 101° East 273 314 4,200 -1,011 Descending Miami Center
Thu 01:32:42 PM 27.8667 -82.8667 126° Southeast 226 260 3,500 -1,161 Descending Tampa TRACON
Thu 01:33:42 PM 27.8667 -82.8000 90° East 197 227 2,400 -1,000 Descending Tampa TRACON
Thu 01:34:36 PM 27.8500 -82.7500 111° Southeast 199 229 1,600 -632 Descending Tampa TRACON
Thu 01:35:36 PM 27.8667 -82.7000 69° East 143 165 1,200 -442 Descending Tampa TRACON
Thu 01:37:19 PM 27.9197 -82.6825 16° North 158 182 400 -466 Descending Miami Center
Thu 01:39:00 PM 27.9100 -82.6875 180° South  Level Estimated

Login

Don't have an account? Register now (free) for customized features, flight alerts, and more!